createdAt,value
2023-02-11T00:01:42.887Z,95156.44
2023-02-11T00:04:11.270Z,95154.75
2023-02-11T00:06:39.427Z,95166.69
2023-02-11T00:09:07.886Z,95143.81
2023-02-11T00:11:35.970Z,95165.38
2023-02-11T00:14:08.065Z,95161.09
2023-02-11T00:16:37.556Z,95154.72
2023-02-11T00:19:06.754Z,95162.13
2023-02-11T00:21:34.961Z,95165.34
2023-02-11T00:24:03.001Z,95163.56
2023-02-11T00:26:35.853Z,95159.16
2023-02-11T00:29:05.977Z,95159.53
2023-02-11T00:31:35.103Z,95160.38
2023-02-11T00:34:03.173Z,95169.78
2023-02-11T00:36:31.581Z,95171.50
2023-02-11T00:39:00.887Z,95168.06
2023-02-11T00:41:30.008Z,95175.91
2023-02-11T00:44:01.755Z,95167.09
2023-02-11T00:46:30.391Z,95166.06
2023-02-11T00:48:58.810Z,95167.41
2023-02-11T00:51:28.649Z,95164.88
2023-02-11T00:53:57.296Z,95158.34
2023-02-11T00:56:25.196Z,95154.63
2023-02-11T00:58:54.287Z,95160.44
2023-02-11T01:01:22.436Z,95159.63
2023-02-11T01:03:50.425Z,95154.78
2023-02-11T01:06:18.507Z,95155.88
2023-02-11T01:08:46.460Z,95151.03
2023-02-11T01:11:18.101Z,95154.84
2023-02-11T01:13:47.238Z,95156.75
2023-02-11T01:16:17.128Z,95149.84
2023-02-11T01:18:46.501Z,95145.69
2023-02-11T01:21:15.078Z,95145.97
2023-02-11T01:23:44.046Z,95159.03
2023-02-11T01:26:12.648Z,95148.19
2023-02-11T01:28:40.555Z,95148.09
2023-02-11T01:31:08.895Z,95144.47
2023-02-11T01:33:36.726Z,95141.09
2023-02-11T01:36:08.435Z,95135.63
2023-02-11T01:38:36.803Z,95128.34
2023-02-11T01:41:11.355Z,95136.75
2023-02-11T01:43:42.841Z,95134.44
2023-02-11T01:46:29.274Z,95136.00
2023-02-11T01:49:08.929Z,95134.53
2023-02-11T01:52:01.940Z,95135.06
2023-02-11T01:54:59.624Z,95116.44
2023-02-11T01:57:31.388Z,95122.34
2023-02-11T02:00:21.761Z,95129.91
2023-02-11T02:03:04.476Z,95132.16
2023-02-11T02:05:42.015Z,95125.75
2023-02-11T02:08:32.474Z,95117.91
2023-02-11T02:11:03.875Z,95120.50
2023-02-11T02:13:34.314Z,95117.81
2023-02-11T02:16:12.861Z,95127.22
2023-02-11T02:19:08.788Z,95128.06
2023-02-11T02:22:14.531Z,95125.94
2023-02-11T02:25:01.264Z,95129.97
2023-02-11T02:27:51.229Z,95123.25
2023-02-11T02:30:43.856Z,95114.41
2023-02-11T02:33:38.017Z,95121.06
2023-02-11T02:36:14.722Z,95128.66
2023-02-11T02:38:56.434Z,95125.72
2023-02-11T02:41:30.146Z,95116.34
2023-02-11T02:43:58.603Z,95119.66
2023-02-11T02:46:30.106Z,95122.88
2023-02-11T02:48:58.879Z,95123.50
2023-02-11T02:51:58.213Z,95132.47
2023-02-11T02:54:40.309Z,95126.19
2023-02-11T02:58:54.206Z,95135.94
2023-02-11T03:01:28.779Z,95129.28
2023-02-11T03:04:18.661Z,95126.72
2023-02-11T03:07:04.331Z,95130.88
2023-02-11T03:09:42.954Z,95117.41
2023-02-11T03:12:13.488Z,95130.50
2023-02-11T03:14:42.326Z,95126.50
2023-02-11T03:17:10.865Z,95129.56
2023-02-11T03:19:44.679Z,95129.03
2023-02-11T03:22:26.711Z,95119.72
2023-02-11T03:24:56.532Z,95131.38
2023-02-11T03:27:47.553Z,95132.94
2023-02-11T03:30:26.450Z,95130.72
2023-02-11T03:33:03.931Z,95128.53
2023-02-11T03:36:03.851Z,95133.41
2023-02-11T03:38:36.049Z,95083.44
2023-02-11T03:41:08.170Z,95132.69
2023-02-11T03:43:42.938Z,95131.66
2023-02-11T03:46:13.766Z,95136.13
2023-02-11T03:48:52.640Z,95142.84
2023-02-11T03:51:22.567Z,95135.97
2023-02-11T03:53:53.011Z,95135.56
2023-02-11T03:56:25.600Z,95137.44
2023-02-11T03:58:53.687Z,95138.28
2023-02-11T04:01:21.899Z,95133.81
2023-02-11T04:03:49.767Z,95127.72
2023-02-11T04:06:18.193Z,95119.50
2023-02-11T04:08:46.066Z,95118.59
2023-02-11T04:11:13.945Z,95122.09
2023-02-11T04:13:41.739Z,95116.34
2023-02-11T04:16:10.115Z,95125.22
2023-02-11T04:18:38.334Z,95117.59
2023-02-11T04:21:06.446Z,95133.13
2023-02-11T04:23:34.300Z,95124.25
2023-02-11T04:26:02.347Z,95116.19
2023-02-11T04:28:30.328Z,95123.75
2023-02-11T04:30:58.761Z,95110.19
2023-02-11T04:33:26.827Z,95120.53
2023-02-11T04:35:54.833Z,95114.59
2023-02-11T04:38:24.421Z,95123.44
2023-02-11T04:40:52.600Z,95104.22
2023-02-11T04:43:20.547Z,95113.19
2023-02-11T04:45:48.919Z,95124.84
2023-02-11T04:48:17.056Z,95109.03
2023-02-11T04:50:44.931Z,95123.97
2023-02-11T04:53:12.891Z,95125.72
2023-02-11T04:55:40.841Z,95117.56
2023-02-11T04:58:08.814Z,95111.41
2023-02-11T05:00:36.838Z,95119.25
2023-02-11T05:03:04.598Z,95101.53
2023-02-11T05:05:32.555Z,95095.16
2023-02-11T05:08:00.551Z,95103.97
2023-02-11T05:10:28.875Z,95112.53
2023-02-11T05:12:56.964Z,95096.31
2023-02-11T05:15:24.903Z,95106.25
2023-02-11T05:17:53.285Z,95105.44
2023-02-11T05:20:21.606Z,95100.59
2023-02-11T05:22:49.587Z,95102.75
2023-02-11T05:25:17.467Z,95099.97
2023-02-11T05:27:45.588Z,95105.47
2023-02-11T05:30:13.666Z,95103.00
2023-02-11T05:32:42.460Z,95107.00
2023-02-11T05:35:10.371Z,95088.66
2023-02-11T05:37:38.616Z,95098.00
2023-02-11T05:40:06.824Z,95101.72
2023-02-11T05:42:34.803Z,95102.78
2023-02-11T05:45:02.732Z,95107.13
2023-02-11T05:47:30.861Z,95103.41
2023-02-11T05:49:59.018Z,95108.81
2023-02-11T05:52:26.953Z,95096.88
2023-02-11T05:54:54.881Z,95107.63
2023-02-11T05:57:23.089Z,95102.38
2023-02-11T05:59:50.994Z,95106.00
2023-02-11T06:02:19.192Z,95103.41
2023-02-11T06:04:47.487Z,95113.03
2023-02-11T06:07:15.629Z,95113.66
2023-02-11T06:09:44.000Z,95112.59
2023-02-11T06:12:12.934Z,95119.31
2023-02-11T06:14:40.945Z,95119.06
2023-02-11T06:17:09.219Z,95120.69
2023-02-11T06:19:37.738Z,95102.94
2023-02-11T06:22:06.094Z,95115.94
2023-02-11T06:24:58.606Z,95111.31
2023-02-11T06:27:22.434Z,95111.47
2023-02-11T06:29:52.652Z,95112.69
2023-02-11T06:32:42.091Z,95109.94
2023-02-11T06:35:11.457Z,95107.63
2023-02-11T06:37:41.286Z,95110.41
2023-02-11T06:40:10.469Z,95106.59
2023-02-11T06:42:39.626Z,95108.03
2023-02-11T06:45:13.420Z,95099.00
2023-02-11T06:47:42.221Z,95100.97
2023-02-11T06:50:13.926Z,95108.44
2023-02-11T06:52:42.377Z,95101.88
2023-02-11T06:55:10.570Z,95094.28
2023-02-11T06:57:38.652Z,95099.00
2023-02-11T07:00:09.461Z,95094.00
2023-02-11T07:02:37.372Z,95099.75
2023-02-11T07:05:07.438Z,95090.31
2023-02-11T07:07:36.236Z,95097.34
2023-02-11T07:10:04.891Z,95080.34
2023-02-11T07:12:33.133Z,95089.94
2023-02-11T07:15:01.309Z,95086.28
2023-02-11T07:17:29.308Z,95095.63
2023-02-11T07:19:57.292Z,95084.72
2023-02-11T07:22:25.583Z,95082.78
2023-02-11T07:24:53.677Z,95084.16
2023-02-11T07:27:21.593Z,95080.25
2023-02-11T07:29:49.560Z,95075.22
2023-02-11T07:32:17.853Z,95077.00
2023-02-11T07:34:46.019Z,95067.78
2023-02-11T07:37:14.386Z,95064.38
2023-02-11T07:39:42.292Z,95061.22
2023-02-11T07:42:10.284Z,95054.88
2023-02-11T07:44:38.295Z,95054.03
2023-02-11T07:47:06.365Z,95049.59
2023-02-11T07:49:34.340Z,95026.75
2023-02-11T07:52:02.648Z,95028.16
2023-02-11T07:54:30.797Z,95010.19
2023-02-11T07:56:59.255Z,95023.00
2023-02-11T07:59:27.689Z,95018.47
2023-02-11T08:01:56.004Z,95015.94
2023-02-11T08:04:24.039Z,95019.97
2023-02-11T08:06:53.343Z,95013.31
2023-02-11T08:09:21.477Z,95001.38
2023-02-11T08:11:49.724Z,95008.13
2023-02-11T08:14:17.708Z,95006.00
2023-02-11T08:16:45.770Z,94997.91
2023-02-11T08:19:16.263Z,94983.69
2023-02-11T08:21:44.795Z,94981.03
2023-02-11T08:24:12.870Z,94987.41
2023-02-11T08:26:41.275Z,94988.06
2023-02-11T08:29:12.379Z,94989.97
2023-02-11T08:31:42.919Z,94982.13
2023-02-11T08:34:14.413Z,94980.28
2023-02-11T08:36:42.864Z,94986.59
2023-02-11T08:39:22.565Z,94982.41
2023-02-11T08:41:56.853Z,94983.28
2023-02-11T08:44:25.266Z,94972.34
2023-02-11T08:46:54.181Z,94971.84
2023-02-11T08:49:23.041Z,94986.81
2023-02-11T08:51:51.654Z,94983.72
2023-02-11T08:54:19.763Z,94986.25
2023-02-11T08:56:52.077Z,94968.38
2023-02-11T08:59:20.440Z,94975.81
2023-02-11T09:01:49.133Z,94975.34
2023-02-11T09:04:17.905Z,94973.56
2023-02-11T09:06:46.577Z,94965.00
2023-02-11T09:09:16.140Z,94963.00
2023-02-11T09:11:45.989Z,94960.78
2023-02-11T09:14:23.199Z,94960.84
2023-02-11T09:16:52.046Z,94949.13
2023-02-11T09:19:21.308Z,94938.34
2023-02-11T09:21:49.576Z,94940.41
2023-02-11T09:24:17.632Z,94942.69
2023-02-11T09:26:45.975Z,94934.91
2023-02-11T09:29:14.078Z,94941.59
2023-02-11T09:31:42.811Z,94932.66
2023-02-11T09:34:11.886Z,94929.94
2023-02-11T09:36:41.408Z,94918.41
2023-02-11T09:39:17.209Z,94911.66
2023-02-11T09:41:54.189Z,94918.19
2023-02-11T09:44:25.771Z,94905.63
2023-02-11T09:47:00.264Z,94894.00
2023-02-11T09:49:49.118Z,94897.09
2023-02-11T09:52:31.225Z,94892.22
2023-02-11T09:55:02.380Z,94881.03
2023-02-11T09:57:36.809Z,94879.22
2023-02-11T10:00:32.618Z,94871.56
2023-02-11T10:03:20.156Z,94864.41
2023-02-11T10:06:23.563Z,94854.19
2023-02-11T10:09:20.098Z,94859.13
2023-02-11T10:11:59.712Z,94850.91
2023-02-11T10:15:04.981Z,94851.81
2023-02-11T10:18:07.149Z,94855.16
2023-02-11T10:20:38.310Z,94844.75
2023-02-11T10:23:26.123Z,94834.78
2023-02-11T10:25:56.667Z,94836.56
2023-02-11T10:28:31.689Z,94825.69
2023-02-11T10:31:25.566Z,94802.25
2023-02-11T10:34:06.819Z,94811.53
2023-02-11T10:36:38.189Z,94802.22
2023-02-11T10:39:26.396Z,94794.47
2023-02-11T10:42:00.806Z,94791.94
2023-02-11T10:44:33.531Z,94785.25
2023-02-11T10:47:06.075Z,94775.84
2023-02-11T10:49:43.233Z,94772.50
2023-02-11T10:52:26.268Z,94762.38
2023-02-11T10:54:58.437Z,94760.06
2023-02-11T10:57:35.852Z,94751.78
2023-02-11T11:00:27.174Z,94743.81
2023-02-11T11:03:00.576Z,94742.47
2023-02-11T11:05:47.756Z,94736.31
2023-02-11T11:11:07.417Z,94734.59
2023-02-11T11:36:02.851Z,94709.63
2023-02-11T11:38:33.888Z,94714.09
2023-02-11T12:25:35.883Z,94693.06
2023-02-11T12:40:05.730Z,94679.72
2023-02-11T12:52:16.927Z,94648.50
2023-02-11T13:14:40.696Z,94641.81
2023-02-11T13:26:27.251Z,94633.56
2023-02-11T13:29:22.438Z,94640.03
2023-02-11T13:35:09.799Z,94613.91
2023-02-11T13:43:47.956Z,94627.81
2023-02-11T14:00:31.386Z,94619.78
2023-02-11T14:03:31.656Z,94618.25
2023-02-11T14:06:37.869Z,94608.72
2023-02-11T14:15:02.630Z,94611.09
2023-02-11T14:44:22.673Z,94597.44
2023-02-11T15:31:47.914Z,94609.53
2023-02-11T15:34:16.591Z,94599.84
2023-02-11T15:36:45.066Z,94596.06
2023-02-11T15:39:18.920Z,94591.47
2023-02-11T15:41:47.620Z,94602.22
2023-02-11T15:44:33.093Z,94595.13
2023-02-11T15:47:01.658Z,94598.25
2023-02-11T15:49:30.615Z,94592.19
2023-02-11T15:51:59.095Z,94594.66
2023-02-11T15:54:31.946Z,94599.75
2023-02-11T15:57:04.336Z,94595.81
2023-02-11T15:59:38.998Z,94602.59
2023-02-11T16:02:35.123Z,94592.88
2023-02-11T16:05:10.198Z,94592.59
2023-02-11T16:07:49.985Z,94591.09
2023-02-11T16:10:27.937Z,94589.81
2023-02-11T16:13:19.025Z,94589.63
2023-02-11T16:16:04.396Z,94588.50
2023-02-11T16:18:52.088Z,94596.53
2023-02-11T16:21:43.645Z,94598.50
2023-02-11T16:24:39.708Z,94594.59
2023-02-11T16:27:22.009Z,94580.78
2023-02-11T16:29:51.649Z,94578.47
2023-02-11T16:32:23.964Z,94596.84
2023-02-11T16:34:55.731Z,94585.19
2023-02-11T16:37:25.556Z,94604.34
2023-02-11T16:39:55.775Z,94610.25
2023-02-11T16:42:24.894Z,94593.28
2023-02-11T16:44:53.384Z,94618.00
2023-02-11T16:47:27.518Z,94612.47
2023-02-11T16:49:57.403Z,94623.41
2023-02-11T16:52:26.383Z,94609.84
2023-02-11T16:54:55.351Z,94607.41
2023-02-11T16:57:28.805Z,94608.56
2023-02-11T17:00:00.070Z,94612.66
2023-02-11T17:02:33.312Z,94613.47
2023-02-11T17:05:05.286Z,94602.97
2023-02-11T17:07:34.539Z,94608.00
2023-02-11T17:10:03.112Z,94610.03
2023-02-11T17:12:31.994Z,94616.16
2023-02-11T17:15:00.633Z,94610.03
2023-02-11T17:17:30.370Z,94615.91
2023-02-11T17:19:59.087Z,94623.25
2023-02-11T17:22:27.546Z,94605.53
2023-02-11T17:24:59.186Z,94608.03
2023-02-11T17:27:28.041Z,94607.47
2023-02-11T17:29:56.532Z,94611.50
2023-02-11T17:32:25.135Z,94603.72
2023-02-11T17:34:54.637Z,94603.66
2023-02-11T17:37:22.881Z,94609.88
2023-02-11T17:39:51.526Z,94613.41
2023-02-11T17:42:20.144Z,94603.47
2023-02-11T17:44:48.551Z,94615.66
2023-02-11T17:47:17.109Z,94620.34
2023-02-11T17:49:46.084Z,94629.84
2023-02-11T17:52:15.255Z,94632.44
2023-02-11T17:54:43.758Z,94625.28
2023-02-11T17:57:13.700Z,94625.66
2023-02-11T17:59:42.317Z,94629.34
2023-02-11T18:02:13.037Z,94629.75
2023-02-11T18:04:41.687Z,94614.50
2023-02-11T18:07:09.993Z,94626.53
2023-02-11T18:09:40.269Z,94627.25
2023-02-11T18:12:09.370Z,94613.81
2023-02-11T18:14:41.578Z,94636.16
2023-02-11T18:17:11.210Z,94641.59
2023-02-11T18:19:39.861Z,94637.13
2023-02-11T18:22:09.849Z,94632.78
2023-02-11T18:24:40.750Z,94637.22
2023-02-11T18:27:09.725Z,94633.75
2023-02-11T18:29:38.729Z,94631.19
2023-02-11T18:32:07.408Z,94631.81
2023-02-11T18:34:35.719Z,94629.06
2023-02-11T18:37:04.198Z,94627.72
2023-02-11T18:39:32.975Z,94626.63
2023-02-11T18:42:01.467Z,94619.56
2023-02-11T18:44:29.892Z,94614.75
2023-02-11T18:46:58.578Z,94623.16
2023-02-11T18:49:27.579Z,94620.25
2023-02-11T18:51:58.625Z,94618.63
2023-02-11T18:54:27.296Z,94621.06
2023-02-11T18:56:55.683Z,94614.47
2023-02-11T18:59:24.198Z,94618.66
2023-02-11T19:01:52.828Z,94611.66
2023-02-11T19:04:21.264Z,94608.09
2023-02-11T19:06:50.384Z,94608.91
2023-02-11T19:09:20.596Z,94622.22
2023-02-11T19:11:52.671Z,94615.75
2023-02-11T19:14:25.450Z,94614.50
2023-02-11T19:16:56.938Z,94607.63
2023-02-11T19:19:28.627Z,94610.41
2023-02-11T19:21:58.720Z,94609.88
2023-02-11T19:24:28.848Z,94608.38
2023-02-11T19:26:59.535Z,94606.00
2023-02-11T19:29:28.824Z,94604.50
2023-02-11T19:31:57.275Z,94606.16
2023-02-11T19:34:25.875Z,94607.53
2023-02-11T19:36:54.815Z,94603.03
2023-02-11T19:39:25.116Z,94602.88
2023-02-11T19:41:54.183Z,94584.63
2023-02-11T19:44:22.571Z,94602.06
2023-02-11T19:46:53.727Z,94602.47
2023-02-11T19:49:26.824Z,94588.34
2023-02-11T19:51:58.639Z,94607.56
2023-02-11T19:54:29.491Z,94603.03
2023-02-11T19:56:59.103Z,94607.53
2023-02-11T19:59:27.914Z,94594.91
2023-02-11T20:01:56.398Z,94603.56
2023-02-11T20:04:25.465Z,94598.75
2023-02-11T20:06:54.015Z,94592.72
2023-02-11T20:09:23.184Z,94596.69
2023-02-11T20:11:51.686Z,94589.69
2023-02-11T20:14:20.222Z,94563.38
2023-02-11T20:16:50.092Z,94564.88
2023-02-11T20:19:22.157Z,94580.81
2023-02-11T20:21:56.156Z,94591.38
2023-02-11T20:24:25.969Z,94589.34
2023-02-11T20:26:57.378Z,94582.00
2023-02-11T20:29:26.274Z,94572.00
2023-02-11T20:31:55.335Z,94573.34
2023-02-11T20:34:25.345Z,94577.00
2023-02-11T20:36:54.692Z,94573.63
2023-02-11T20:39:25.700Z,94562.13
2023-02-11T20:41:54.884Z,94561.28
2023-02-11T20:44:23.768Z,94547.84
2023-02-11T20:46:54.638Z,94559.06
2023-02-11T20:49:25.035Z,94564.66
2023-02-11T20:51:54.326Z,94546.69
2023-02-11T20:54:25.299Z,94555.47
2023-02-11T20:56:54.607Z,94553.16
2023-02-11T20:59:23.350Z,94561.72
2023-02-11T21:01:54.398Z,94553.84
2023-02-11T21:04:29.851Z,94547.75
2023-02-11T21:07:00.981Z,94548.78
2023-02-11T21:09:32.575Z,94551.53
2023-02-11T21:12:01.929Z,94548.66
2023-02-11T21:14:30.787Z,94541.13
2023-02-11T21:16:59.396Z,94544.03
2023-02-11T21:19:27.691Z,94536.53
2023-02-11T21:21:57.524Z,94542.13
2023-02-11T21:24:25.801Z,94528.03
2023-02-11T21:26:54.368Z,94532.66
2023-02-11T21:29:22.791Z,94511.78
2023-02-11T21:31:51.860Z,94523.28
2023-02-11T21:34:20.938Z,94522.06
2023-02-11T21:36:51.492Z,94527.00
2023-02-11T21:39:20.789Z,94511.09
2023-02-11T21:41:49.551Z,94516.88
2023-02-11T21:44:18.107Z,94503.88
2023-02-11T21:46:46.143Z,94507.50
2023-02-11T21:49:14.313Z,94510.16
2023-02-11T21:51:42.752Z,94509.19
2023-02-11T21:54:12.161Z,94496.41
2023-02-11T21:56:40.811Z,94508.09
2023-02-11T21:59:12.477Z,94510.16
2023-02-11T22:01:40.811Z,94505.03
2023-02-11T22:04:10.249Z,94508.91
2023-02-11T22:06:38.537Z,94502.59
2023-02-11T22:09:08.722Z,94505.16
2023-02-11T22:11:36.970Z,94498.56
2023-02-11T22:14:05.347Z,94499.72
2023-02-11T22:16:33.626Z,94496.25
2023-02-11T22:19:02.692Z,94498.19
2023-02-11T22:21:32.579Z,94495.44
2023-02-11T22:24:00.561Z,94495.72
2023-02-11T22:26:29.041Z,94494.09
2023-02-11T22:28:57.112Z,94503.34
2023-02-11T22:31:31.433Z,94505.44
2023-02-11T22:34:00.530Z,94509.25
2023-02-11T22:36:34.852Z,94508.75
2023-02-11T22:39:08.263Z,94506.81
2023-02-11T22:41:38.467Z,94507.84
2023-02-11T22:44:06.864Z,94507.63
2023-02-11T22:46:35.651Z,94500.84
2023-02-11T22:49:05.139Z,94493.44
2023-02-11T22:51:33.378Z,94494.69
2023-02-11T22:54:03.947Z,94484.22
2023-02-11T22:56:33.782Z,94489.41
2023-02-11T22:59:02.988Z,94496.88
2023-02-11T23:01:31.762Z,94482.09
2023-02-11T23:04:02.640Z,94489.19
2023-02-11T23:06:30.939Z,94475.53
2023-02-11T23:08:58.966Z,94484.16
2023-02-11T23:11:29.091Z,94482.94
2023-02-11T23:13:57.288Z,94481.91
2023-02-11T23:16:33.627Z,94478.63
2023-02-11T23:19:05.295Z,94485.03
2023-02-11T23:21:36.987Z,94480.97
2023-02-11T23:24:12.583Z,94468.84
2023-02-11T23:26:41.847Z,94475.91
2023-02-11T23:29:10.350Z,94471.53
2023-02-11T23:31:40.833Z,94464.19
2023-02-11T23:34:10.281Z,94453.38
2023-02-11T23:36:38.146Z,94457.47
2023-02-11T23:39:06.469Z,94461.34
2023-02-11T23:41:34.326Z,94455.56
2023-02-11T23:44:02.334Z,94452.06
2023-02-11T23:46:30.261Z,94459.84
2023-02-11T23:48:58.175Z,94448.28
2023-02-11T23:51:26.111Z,94452.34
2023-02-11T23:53:56.317Z,94461.88
2023-02-11T23:56:26.821Z,94453.72
2023-02-11T23:58:57.429Z,94463.06
